sensor_id;sensor_type;location;lat;lon;timestamp;temperature;humidity
12039;DHT22;6080;48.818;9.526;2023-03-14T04:00:49;9.40;99.90
12039;DHT22;6080;48.818;9.526;2023-03-14T04:03:15;9.40;99.90
12039;DHT22;6080;48.818;9.526;2023-03-14T04:05:40;9.40;99.90
12039;DHT22;6080;48.818;9.526;2023-03-14T04:08:06;9.40;99.90
12039;DHT22;6080;48.818;9.526;2023-03-14T04:10:34;9.40;99.90
12039;DHT22;6080;48.818;9.526;2023-03-14T04:13:01;9.50;99.90
12039;DHT22;6080;48.818;9.526;2023-03-14T04:15:26;9.60;99.90
12039;DHT22;6080;48.818;9.526;2023-03-14T04:17:57;9.60;99.90
12039;DHT22;6080;48.818;9.526;2023-03-14T04:20:23;9.50;99.90
12039;DHT22;6080;48.818;9.526;2023-03-14T04:22:49;9.50;99.90
12039;DHT22;6080;48.818;9.526;2023-03-14T04:25:14;9.50;99.90
12039;DHT22;6080;48.818;9.526;2023-03-14T04:27:42;9.50;99.90
12039;DHT22;6080;48.818;9.526;2023-03-14T04:30:08;9.50;99.90
12039;DHT22;6080;48.818;9.526;2023-03-14T04:32:34;9.50;99.90
12039;DHT22;6080;48.818;9.526;2023-03-14T04:35:00;9.50;99.90
12039;DHT22;6080;48.818;9.526;2023-03-14T04:37:26;9.60;99.90
12039;DHT22;6080;48.818;9.526;2023-03-14T04:39:52;9.50;99.90
12039;DHT22;6080;48.818;9.526;2023-03-14T04:42:17;9.50;99.90
12039;DHT22;6080;48.818;9.526;2023-03-14T04:44:43;9.50;99.90
12039;DHT22;6080;48.818;9.526;2023-03-14T04:47:09;9.40;99.90
12039;DHT22;6080;48.818;9.526;2023-03-14T04:49:35;9.40;99.90
12039;DHT22;6080;48.818;9.526;2023-03-14T04:52:00;9.40;99.90
12039;DHT22;6080;48.818;9.526;2023-03-14T04:54:26;9.40;99.90
12039;DHT22;6080;48.818;9.526;2023-03-14T04:56:52;9.30;99.90
12039;DHT22;6080;48.818;9.526;2023-03-14T04:59:18;9.30;99.90
12039;DHT22;6080;48.818;9.526;2023-03-14T05:01:43;9.30;99.90
12039;DHT22;6080;48.818;9.526;2023-03-14T05:04:09;9.30;99.90
12039;DHT22;6080;48.818;9.526;2023-03-14T05:06:35;9.30;99.90
12039;DHT22;6080;48.818;9.526;2023-03-14T05:09:01;9.20;99.90
12039;DHT22;6080;48.818;9.526;2023-03-14T05:11:26;9.10;99.90
12039;DHT22;6080;48.818;9.526;2023-03-14T05:13:52;9.10;99.90
12039;DHT22;6080;48.818;9.526;2023-03-14T05:16:18;9.10;99.90
12039;DHT22;6080;48.818;9.526;2023-03-14T05:18:44;9.10;99.90
12039;DHT22;6080;48.818;9.526;2023-03-14T05:21:09;9.00;99.90
12039;DHT22;6080;48.818;9.526;2023-03-14T05:23:35;9.00;99.90
12039;DHT22;6080;48.818;9.526;2023-03-14T05:26:01;9.00;99.90
12039;DHT22;6080;48.818;9.526;2023-03-14T05:28:26;9.00;99.90
12039;DHT22;6080;48.818;9.526;2023-03-14T05:30:52;9.00;99.90
12039;DHT22;6080;48.818;9.526;2023-03-14T05:33:18;9.10;99.90
12039;DHT22;6080;48.818;9.526;2023-03-14T05:35:44;9.20;99.90
12039;DHT22;6080;48.818;9.526;2023-03-14T05:38:19;9.20;99.90
12039;DHT22;6080;48.818;9.526;2023-03-14T05:40:45;9.10;99.90
12039;DHT22;6080;48.818;9.526;2023-03-14T05:43:11;9.10;99.90
12039;DHT22;6080;48.818;9.526;2023-03-14T05:45:37;9.10;99.90
12039;DHT22;6080;48.818;9.526;2023-03-14T05:48:03;9.10;99.90
12039;DHT22;6080;48.818;9.526;2023-03-14T05:50:29;9.10;99.90
12039;DHT22;6080;48.818;9.526;2023-03-14T05:52:54;9.10;99.90
12039;DHT22;6080;48.818;9.526;2023-03-14T05:55:20;9.20;99.90
12039;DHT22;6080;48.818;9.526;2023-03-14T05:57:46;9.20;99.90
12039;DHT22;6080;48.818;9.526;2023-03-14T06:00:12;9.20;99.90
12039;DHT22;6080;48.818;9.526;2023-03-14T06:02:38;9.20;99.90
12039;DHT22;6080;48.818;9.526;2023-03-14T06:05:04;9.20;99.90
12039;DHT22;6080;48.818;9.526;2023-03-14T06:07:30;9.30;99.90
12039;DHT22;6080;48.818;9.526;2023-03-14T06:09:56;9.30;99.90
12039;DHT22;6080;48.818;9.526;2023-03-14T06:12:24;9.30;99.90
12039;DHT22;6080;48.818;9.526;2023-03-14T06:14:50;9.30;99.90
12039;DHT22;6080;48.818;9.526;2023-03-14T06:17:15;9.40;99.90
12039;DHT22;6080;48.818;9.526;2023-03-14T06:19:41;9.40;99.90
12039;DHT22;6080;48.818;9.526;2023-03-14T06:22:07;9.40;99.90
12039;DHT22;6080;48.818;9.526;2023-03-14T06:24:33;9.30;99.90
12039;DHT22;6080;48.818;9.526;2023-03-14T06:26:58;9.40;99.90
12039;DHT22;6080;48.818;9.526;2023-03-14T06:29:24;9.40;99.90
12039;DHT22;6080;48.818;9.526;2023-03-14T06:31:50;9.40;99.90
12039;DHT22;6080;48.818;9.526;2023-03-14T06:34:15;9.40;99.90
12039;DHT22;6080;48.818;9.526;2023-03-14T06:36:41;9.50;99.90
12039;DHT22;6080;48.818;9.526;2023-03-14T06:39:07;9.60;99.90
12039;DHT22;6080;48.818;9.526;2023-03-14T06:41:33;9.60;99.90
12039;DHT22;6080;48.818;9.526;2023-03-14T06:43:58;9.60;99.90
12039;DHT22;6080;48.818;9.526;2023-03-14T06:46:24;9.60;99.90
12039;DHT22;6080;48.818;9.526;2023-03-14T06:48:50;9.70;99.90
12039;DHT22;6080;48.818;9.526;2023-03-14T06:51:15;9.70;99.90
12039;DHT22;6080;48.818;9.526;2023-03-14T06:53:41;9.70;99.90
12039;DHT22;6080;48.818;9.526;2023-03-14T06:56:07;9.70;99.90
12039;DHT22;6080;48.818;9.526;2023-03-14T06:58:33;9.70;99.90
12039;DHT22;6080;48.818;9.526;2023-03-14T07:00:59;9.80;99.90
12039;DHT22;6080;48.818;9.526;2023-03-14T07:03:25;10.00;99.90
12039;DHT22;6080;48.818;9.526;2023-03-14T07:05:51;10.50;99.90
12039;DHT22;6080;48.818;9.526;2023-03-14T07:08:17;10.70;99.90
12039;DHT22;6080;48.818;9.526;2023-03-14T07:10:42;10.70;99.90
12039;DHT22;6080;48.818;9.526;2023-03-14T07:13:08;10.90;99.90
12039;DHT22;6080;48.818;9.526;2023-03-14T07:15:34;10.90;99.90
12039;DHT22;6080;48.818;9.526;2023-03-14T07:18:00;11.20;99.90
12039;DHT22;6080;48.818;9.526;2023-03-14T07:20:26;11.70;99.90
12039;DHT22;6080;48.818;9.526;2023-03-14T07:22:51;12.60;99.90
12039;DHT22;6080;48.818;9.526;2023-03-14T07:25:17;13.40;99.90
12039;DHT22;6080;48.818;9.526;2023-03-14T07:27:44;13.70;99.90
12039;DHT22;6080;48.818;9.526;2023-03-14T07:30:11;14.00;99.90
12039;DHT22;6080;48.818;9.526;2023-03-14T07:32:37;14.30;99.90
12039;DHT22;6080;48.818;9.526;2023-03-14T07:35:03;14.70;99.90
12039;DHT22;6080;48.818;9.526;2023-03-14T07:37:28;15.20;99.90
12039;DHT22;6080;48.818;9.526;2023-03-14T07:39:54;15.50;99.90
12039;DHT22;6080;48.818;9.526;2023-03-14T07:42:20;15.70;99.90
12039;DHT22;6080;48.818;9.526;2023-03-14T07:44:46;16.10;99.90
12039;DHT22;6080;48.818;9.526;2023-03-14T07:47:12;16.00;99.90
12039;DHT22;6080;48.818;9.526;2023-03-14T07:49:37;15.80;99.90
12039;DHT22;6080;48.818;9.526;2023-03-14T07:52:03;16.00;99.90
12039;DHT22;6080;48.818;9.526;2023-03-14T07:54:29;16.00;99.90
12039;DHT22;6080;48.818;9.526;2023-03-14T07:56:55;16.40;99.90
12039;DHT22;6080;48.818;9.526;2023-03-14T07:59:20;16.30;99.90
12039;DHT22;6080;48.818;9.526;2023-03-14T08:01:46;16.10;99.90
12039;DHT22;6080;48.818;9.526;2023-03-14T08:04:12;15.70;99.90
12039;DHT22;6080;48.818;9.526;2023-03-14T08:06:38;15.70;99.90
12039;DHT22;6080;48.818;9.526;2023-03-14T08:09:04;16.10;99.90
12039;DHT22;6080;48.818;9.526;2023-03-14T08:11:30;16.40;99.90
12039;DHT22;6080;48.818;9.526;2023-03-14T08:13:55;16.70;99.90
12039;DHT22;6080;48.818;9.526;2023-03-14T08:16:22;16.60;99.90
12039;DHT22;6080;48.818;9.526;2023-03-14T08:18:48;16.50;99.90
12039;DHT22;6080;48.818;9.526;2023-03-14T08:21:14;16.50;99.90
12039;DHT22;6080;48.818;9.526;2023-03-14T08:23:39;16.80;99.90
12039;DHT22;6080;48.818;9.526;2023-03-14T08:26:06;17.30;99.90
12039;DHT22;6080;48.818;9.526;2023-03-14T08:28:32;17.00;99.90
12039;DHT22;6080;48.818;9.526;2023-03-14T08:31:00;16.40;99.90
12039;DHT22;6080;48.818;9.526;2023-03-14T08:33:27;16.20;99.90
12039;DHT22;6080;48.818;9.526;2023-03-14T08:35:54;16.10;99.90
12039;DHT22;6080;48.818;9.526;2023-03-14T08:38:20;16.00;99.90
12039;DHT22;6080;48.818;9.526;2023-03-14T08:40:46;16.20;99.90
12039;DHT22;6080;48.818;9.526;2023-03-14T08:43:12;16.20;99.90
12039;DHT22;6080;48.818;9.526;2023-03-14T08:45:38;16.70;99.90
12039;DHT22;6080;48.818;9.526;2023-03-14T08:48:04;16.90;99.90
12039;DHT22;6080;48.818;9.526;2023-03-14T08:50:30;17.30;99.90
12039;DHT22;6080;48.818;9.526;2023-03-14T08:52:55;17.50;99.90
12039;DHT22;6080;48.818;9.526;2023-03-14T08:55:26;17.30;99.90
12039;DHT22;6080;48.818;9.526;2023-03-14T08:57:53;17.10;99.90
12039;DHT22;6080;48.818;9.526;2023-03-14T09:00:19;16.50;99.90
12039;DHT22;6080;48.818;9.526;2023-03-14T09:02:45;16.00;99.90
12039;DHT22;6080;48.818;9.526;2023-03-14T09:05:12;15.50;99.90
12039;DHT22;6080;48.818;9.526;2023-03-14T09:07:38;15.40;99.90
12039;DHT22;6080;48.818;9.526;2023-03-14T09:10:06;15.20;99.90
12039;DHT22;6080;48.818;9.526;2023-03-14T09:12:32;15.30;99.90
12039;DHT22;6080;48.818;9.526;2023-03-14T09:14:58;15.60;99.90
12039;DHT22;6080;48.818;9.526;2023-03-14T09:17:24;16.00;99.90
12039;DHT22;6080;48.818;9.526;2023-03-14T09:19:49;16.30;99.90
12039;DHT22;6080;48.818;9.526;2023-03-14T09:22:15;16.70;99.90
12039;DHT22;6080;48.818;9.526;2023-03-14T09:24:41;17.10;99.90
12039;DHT22;6080;48.818;9.526;2023-03-14T09:27:07;16.40;99.90
12039;DHT22;6080;48.818;9.526;2023-03-14T09:29:33;16.00;99.90
12039;DHT22;6080;48.818;9.526;2023-03-14T09:31:59;14.80;99.90
12039;DHT22;6080;48.818;9.526;2023-03-14T09:34:25;14.10;99.90
12039;DHT22;6080;48.818;9.526;2023-03-14T09:36:51;13.70;99.90
12039;DHT22;6080;48.818;9.526;2023-03-14T09:39:17;13.70;99.90
12039;DHT22;6080;48.818;9.526;2023-03-14T09:41:45;13.60;99.90
12039;DHT22;6080;48.818;9.526;2023-03-14T09:44:16;13.70;99.90
12039;DHT22;6080;48.818;9.526;2023-03-14T09:46:46;13.80;99.90
12039;DHT22;6080;48.818;9.526;2023-03-14T09:49:35;14.00;99.90
12039;DHT22;6080;48.818;9.526;2023-03-14T09:52:29;14.10;99.90
12039;DHT22;6080;48.818;9.526;2023-03-14T09:55:03;14.10;99.90
12039;DHT22;6080;48.818;9.526;2023-03-14T09:57:29;14.20;99.90
12039;DHT22;6080;48.818;9.526;2023-03-14T10:00:02;14.60;99.90
12039;DHT22;6080;48.818;9.526;2023-03-14T10:02:37;14.70;99.90
12039;DHT22;6080;48.818;9.526;2023-03-14T10:05:15;14.80;99.90
12039;DHT22;6080;48.818;9.526;2023-03-14T10:07:42;15.00;99.90
12039;DHT22;6080;48.818;9.526;2023-03-14T10:10:13;15.40;99.90
12039;DHT22;6080;48.818;9.526;2023-03-14T10:12:41;15.30;99.90
12039;DHT22;6080;48.818;9.526;2023-03-14T10:15:14;15.70;99.90
12039;DHT22;6080;48.818;9.526;2023-03-14T10:17:49;16.00;99.90
12039;DHT22;6080;48.818;9.526;2023-03-14T10:20:38;16.80;99.90
12039;DHT22;6080;48.818;9.526;2023-03-14T10:25:41;18.40;99.90
12039;DHT22;6080;48.818;9.526;2023-03-14T10:28:31;18.40;99.90
12039;DHT22;6080;48.818;9.526;2023-03-14T10:30:59;17.90;99.90
12039;DHT22;6080;48.818;9.526;2023-03-14T10:33:31;17.70;99.90
12039;DHT22;6080;48.818;9.526;2023-03-14T10:36:19;17.80;99.90
12039;DHT22;6080;48.818;9.526;2023-03-14T10:38:46;17.90;99.90
12039;DHT22;6080;48.818;9.526;2023-03-14T10:41:19;17.70;99.90
12039;DHT22;6080;48.818;9.526;2023-03-14T10:43:50;18.00;99.90
12039;DHT22;6080;48.818;9.526;2023-03-14T10:46:18;18.00;99.90
12039;DHT22;6080;48.818;9.526;2023-03-14T10:48:45;18.40;99.90
12039;DHT22;6080;48.818;9.526;2023-03-14T10:51:19;18.80;99.90
12039;DHT22;6080;48.818;9.526;2023-03-14T10:53:58;19.30;99.90
12039;DHT22;6080;48.818;9.526;2023-03-14T10:56:25;18.70;99.90
12039;DHT22;6080;48.818;9.526;2023-03-14T10:58:57;18.20;99.90
12039;DHT22;6080;48.818;9.526;2023-03-14T11:09:42;15.60;99.90
12039;DHT22;6080;48.818;9.526;2023-03-14T11:15:49;14.90;99.90
12039;DHT22;6080;48.818;9.526;2023-03-14T11:21:13;14.40;99.90
12039;DHT22;6080;48.818;9.526;2023-03-14T11:31:44;13.90;99.90
12039;DHT22;6080;48.818;9.526;2023-03-14T11:34:28;13.90;99.90
12039;DHT22;6080;48.818;9.526;2023-03-14T11:37:18;13.70;99.90
12039;DHT22;6080;48.818;9.526;2023-03-14T11:39:56;13.60;99.90
12039;DHT22;6080;48.818;9.526;2023-03-14T11:42:22;13.50;99.90
12039;DHT22;6080;48.818;9.526;2023-03-14T11:44:50;13.40;99.90
12039;DHT22;6080;48.818;9.526;2023-03-14T11:47:26;13.30;99.90
12039;DHT22;6080;48.818;9.526;2023-03-14T11:50:14;12.80;99.90
12039;DHT22;6080;48.818;9.526;2023-03-14T11:52:48;12.20;99.90
12039;DHT22;6080;48.818;9.526;2023-03-14T11:55:24;11.70;99.90
12039;DHT22;6080;48.818;9.526;2023-03-14T11:57:55;11.40;99.90
12039;DHT22;6080;48.818;9.526;2023-03-14T12:00:24;11.30;99.90
12039;DHT22;6080;48.818;9.526;2023-03-14T12:10:51;11.30;99.90
12039;DHT22;6080;48.818;9.526;2023-03-14T12:13:18;11.20;99.90
12039;DHT22;6080;48.818;9.526;2023-03-14T12:15:55;11.30;99.90
12039;DHT22;6080;48.818;9.526;2023-03-14T12:18:28;11.20;99.90
12039;DHT22;6080;48.818;9.526;2023-03-14T12:21:00;11.20;99.90
12039;DHT22;6080;48.818;9.526;2023-03-14T12:23:28;11.30;99.90
12039;DHT22;6080;48.818;9.526;2023-03-14T12:26:26;11.20;99.90
12039;DHT22;6080;48.818;9.526;2023-03-14T12:42:13;11.50;99.90
12039;DHT22;6080;48.818;9.526;2023-03-14T12:44:45;11.60;99.90
12039;DHT22;6080;48.818;9.526;2023-03-14T12:49:48;11.70;99.90
12039;DHT22;6080;48.818;9.526;2023-03-14T12:52:21;12.10;99.90
12039;DHT22;6080;48.818;9.526;2023-03-14T12:57:53;12.40;99.90
12039;DHT22;6080;48.818;9.526;2023-03-14T13:00:34;12.90;99.90
12039;DHT22;6080;48.818;9.526;2023-03-14T13:03:12;12.90;99.90
12039;DHT22;6080;48.818;9.526;2023-03-14T13:05:58;12.90;99.90
12039;DHT22;6080;48.818;9.526;2023-03-14T13:08:36;12.50;99.90
12039;DHT22;6080;48.818;9.526;2023-03-14T13:11:07;12.50;99.90
12039;DHT22;6080;48.818;9.526;2023-03-14T13:13:35;11.70;99.90
12039;DHT22;6080;48.818;9.526;2023-03-14T13:16:03;11.80;99.90
12039;DHT22;6080;48.818;9.526;2023-03-14T13:18:41;12.50;99.90
12039;DHT22;6080;48.818;9.526;2023-03-14T13:21:21;13.20;99.90
12039;DHT22;6080;48.818;9.526;2023-03-14T13:24:21;14.00;99.90
12039;DHT22;6080;48.818;9.526;2023-03-14T13:26:48;14.40;99.90
12039;DHT22;6080;48.818;9.526;2023-03-14T13:29:22;14.70;99.90
12039;DHT22;6080;48.818;9.526;2023-03-14T13:32:22;13.90;99.90
12039;DHT22;6080;48.818;9.526;2023-03-14T13:34:51;13.60;99.90
12039;DHT22;6080;48.818;9.526;2023-03-14T13:37:22;12.90;99.90
12039;DHT22;6080;48.818;9.526;2023-03-14T13:39:55;12.70;99.90
12039;DHT22;6080;48.818;9.526;2023-03-14T13:42:25;11.90;99.90
12039;DHT22;6080;48.818;9.526;2023-03-14T13:44:53;11.60;99.90
12039;DHT22;6080;48.818;9.526;2023-03-14T13:47:21;12.20;99.90
12039;DHT22;6080;48.818;9.526;2023-03-14T13:49:49;12.60;99.90
12039;DHT22;6080;48.818;9.526;2023-03-14T13:54:54;12.40;99.90
12039;DHT22;6080;48.818;9.526;2023-03-14T13:57:20;11.60;99.90
12039;DHT22;6080;48.818;9.526;2023-03-14T13:59:59;11.20;99.90
12039;DHT22;6080;48.818;9.526;2023-03-14T14:02:26;11.40;99.90
12039;DHT22;6080;48.818;9.526;2023-03-14T14:04:53;11.00;99.90
12039;DHT22;6080;48.818;9.526;2023-03-14T14:07:19;11.30;99.90
12039;DHT22;6080;48.818;9.526;2023-03-14T14:09:48;11.40;99.90
12039;DHT22;6080;48.818;9.526;2023-03-14T14:14:57;11.70;99.90
12039;DHT22;6080;48.818;9.526;2023-03-14T14:17:31;11.50;99.90
12039;DHT22;6080;48.818;9.526;2023-03-14T14:20:00;11.30;99.90
12039;DHT22;6080;48.818;9.526;2023-03-14T14:22:29;11.10;99.90
12039;DHT22;6080;48.818;9.526;2023-03-14T14:24:55;10.90;99.90
12039;DHT22;6080;48.818;9.526;2023-03-14T14:27:32;10.70;99.90
12039;DHT22;6080;48.818;9.526;2023-03-14T14:30:25;10.50;99.90
12039;DHT22;6080;48.818;9.526;2023-03-14T14:32:52;10.50;99.90
12039;DHT22;6080;48.818;9.526;2023-03-14T14:35:25;10.30;99.90
12039;DHT22;6080;48.818;9.526;2023-03-14T14:37:51;10.40;99.90
12039;DHT22;6080;48.818;9.526;2023-03-14T14:40:21;10.30;99.90
12039;DHT22;6080;48.818;9.526;2023-03-14T14:42:48;10.30;99.80
12039;DHT22;6080;48.818;9.526;2023-03-14T14:45:23;10.20;98.40
12039;DHT22;6080;48.818;9.526;2023-03-14T14:50:33;10.00;99.30
12039;DHT22;6080;48.818;9.526;2023-03-14T14:53:03;10.00;99.40
12039;DHT22;6080;48.818;9.526;2023-03-14T14:55:34;10.00;99.20
12039;DHT22;6080;48.818;9.526;2023-03-14T14:58:39;10.10;99.90
12039;DHT22;6080;48.818;9.526;2023-03-14T15:03:43;10.40;99.70
12039;DHT22;6080;48.818;9.526;2023-03-14T15:06:12;10.40;99.40
12039;DHT22;6080;48.818;9.526;2023-03-14T15:08:38;10.30;99.50
12039;DHT22;6080;48.818;9.526;2023-03-14T15:11:04;10.20;99.90
12039;DHT22;6080;48.818;9.526;2023-03-14T15:13:30;10.00;98.50
12039;DHT22;6080;48.818;9.526;2023-03-14T15:15:56;9.90;99.90
12039;DHT22;6080;48.818;9.526;2023-03-14T15:18:28;9.90;99.80
12039;DHT22;6080;48.818;9.526;2023-03-14T15:20:54;10.00;99.90
12039;DHT22;6080;48.818;9.526;2023-03-14T15:23:21;10.20;99.90
12039;DHT22;6080;48.818;9.526;2023-03-14T15:25:48;10.30;99.60
12039;DHT22;6080;48.818;9.526;2023-03-14T15:28:21;10.30;99.30
12039;DHT22;6080;48.818;9.526;2023-03-14T15:30:49;10.50;99.30
12039;DHT22;6080;48.818;9.526;2023-03-14T15:33:16;10.60;99.20
12039;DHT22;6080;48.818;9.526;2023-03-14T15:35:42;10.50;98.90
12039;DHT22;6080;48.818;9.526;2023-03-14T15:38:19;10.50;99.70
12039;DHT22;6080;48.818;9.526;2023-03-14T15:40:46;10.60;99.70
12039;DHT22;6080;48.818;9.526;2023-03-14T15:43:12;10.60;99.20
12039;DHT22;6080;48.818;9.526;2023-03-14T15:45:38;11.10;99.00
12039;DHT22;6080;48.818;9.526;2023-03-14T15:48:05;11.40;98.90
12039;DHT22;6080;48.818;9.526;2023-03-14T15:50:31;11.70;97.80
12039;DHT22;6080;48.818;9.526;2023-03-14T15:52:57;11.70;96.80
12039;DHT22;6080;48.818;9.526;2023-03-14T15:55:23;11.50;96.80
12039;DHT22;6080;48.818;9.526;2023-03-14T15:57:48;11.10;97.20
12039;DHT22;6080;48.818;9.526;2023-03-14T16:00:17;10.80;97.50
12039;DHT22;6080;48.818;9.526;2023-03-14T16:02:44;10.40;97.10
12039;DHT22;6080;48.818;9.526;2023-03-14T16:05:11;10.10;98.20
12039;DHT22;6080;48.818;9.526;2023-03-14T16:07:38;10.00;99.00
12039;DHT22;6080;48.818;9.526;2023-03-14T16:10:04;9.90;99.50
12039;DHT22;6080;48.818;9.526;2023-03-14T16:12:31;9.90;99.90
12039;DHT22;6080;48.818;9.526;2023-03-14T16:14:57;9.90;99.90
12039;DHT22;6080;48.818;9.526;2023-03-14T16:17:23;10.40;99.90
12039;DHT22;6080;48.818;9.526;2023-03-14T16:19:49;10.80;99.80
12039;DHT22;6080;48.818;9.526;2023-03-14T16:22:14;11.80;98.30
12039;DHT22;6080;48.818;9.526;2023-03-14T16:24:40;12.30;96.70
12039;DHT22;6080;48.818;9.526;2023-03-14T16:27:07;11.60;97.30
12039;DHT22;6080;48.818;9.526;2023-03-14T16:29:33;10.80;98.50
12039;DHT22;6080;48.818;9.526;2023-03-14T16:31:59;10.10;99.70
12039;DHT22;6080;48.818;9.526;2023-03-14T16:34:25;9.90;99.90
12039;DHT22;6080;48.818;9.526;2023-03-14T16:36:52;9.70;99.90
12039;DHT22;6080;48.818;9.526;2023-03-14T16:39:18;9.60;99.90
12039;DHT22;6080;48.818;9.526;2023-03-14T16:41:44;9.50;99.90
12039;DHT22;6080;48.818;9.526;2023-03-14T16:44:10;9.40;99.90
12039;DHT22;6080;48.818;9.526;2023-03-14T16:46:36;9.30;99.90
12039;DHT22;6080;48.818;9.526;2023-03-14T16:49:04;9.20;99.90
12039;DHT22;6080;48.818;9.526;2023-03-14T16:51:29;9.20;99.90
12039;DHT22;6080;48.818;9.526;2023-03-14T16:53:55;9.10;99.90
12039;DHT22;6080;48.818;9.526;2023-03-14T16:56:21;9.10;99.90
12039;DHT22;6080;48.818;9.526;2023-03-14T16:58:48;9.10;99.90
12039;DHT22;6080;48.818;9.526;2023-03-14T17:01:15;9.20;99.90
12039;DHT22;6080;48.818;9.526;2023-03-14T17:03:48;9.20;99.90
12039;DHT22;6080;48.818;9.526;2023-03-14T17:06:16;9.20;99.90
12039;DHT22;6080;48.818;9.526;2023-03-14T17:08:43;9.20;99.90
12039;DHT22;6080;48.818;9.526;2023-03-14T17:11:09;9.20;99.90
12039;DHT22;6080;48.818;9.526;2023-03-14T17:13:35;9.30;99.90
12039;DHT22;6080;48.818;9.526;2023-03-14T17:16:01;9.30;99.90
12039;DHT22;6080;48.818;9.526;2023-03-14T17:18:28;9.30;99.90
12039;DHT22;6080;48.818;9.526;2023-03-14T17:20:55;9.30;99.90
12039;DHT22;6080;48.818;9.526;2023-03-14T17:23:23;9.20;99.90
12039;DHT22;6080;48.818;9.526;2023-03-14T17:25:50;9.20;99.90
12039;DHT22;6080;48.818;9.526;2023-03-14T17:28:17;9.20;99.90
12039;DHT22;6080;48.818;9.526;2023-03-14T17:30:43;9.10;99.90
12039;DHT22;6080;48.818;9.526;2023-03-14T17:33:10;9.10;99.90
12039;DHT22;6080;48.818;9.526;2023-03-14T17:35:35;8.90;99.90
12039;DHT22;6080;48.818;9.526;2023-03-14T17:38:01;8.80;99.90
12039;DHT22;6080;48.818;9.526;2023-03-14T17:40:27;8.70;99.90
12039;DHT22;6080;48.818;9.526;2023-03-14T17:42:53;8.70;99.90
12039;DHT22;6080;48.818;9.526;2023-03-14T17:45:19;8.60;99.90
12039;DHT22;6080;48.818;9.526;2023-03-14T17:47:45;8.50;99.90
12039;DHT22;6080;48.818;9.526;2023-03-14T17:50:11;8.50;99.90
12039;DHT22;6080;48.818;9.526;2023-03-14T17:52:37;8.40;99.90
12039;DHT22;6080;48.818;9.526;2023-03-14T17:55:04;8.30;99.90
12039;DHT22;6080;48.818;9.526;2023-03-14T17:57:32;8.10;99.90
12039;DHT22;6080;48.818;9.526;2023-03-14T17:59:58;7.90;99.90
12039;DHT22;6080;48.818;9.526;2023-03-14T18:02:24;7.80;99.90
12039;DHT22;6080;48.818;9.526;2023-03-14T18:04:51;7.70;99.90
12039;DHT22;6080;48.818;9.526;2023-03-14T18:07:18;7.70;99.90
12039;DHT22;6080;48.818;9.526;2023-03-14T18:09:45;7.70;99.90
12039;DHT22;6080;48.818;9.526;2023-03-14T18:12:11;7.70;99.90
12039;DHT22;6080;48.818;9.526;2023-03-14T18:14:37;7.70;99.90
12039;DHT22;6080;48.818;9.526;2023-03-14T18:17:04;7.70;99.90
12039;DHT22;6080;48.818;9.526;2023-03-14T18:19:30;7.60;99.90
12039;DHT22;6080;48.818;9.526;2023-03-14T18:21:57;7.60;99.90
12039;DHT22;6080;48.818;9.526;2023-03-14T18:24:23;7.50;99.90
12039;DHT22;6080;48.818;9.526;2023-03-14T18:26:48;7.50;99.90
12039;DHT22;6080;48.818;9.526;2023-03-14T18:29:14;7.50;99.90
12039;DHT22;6080;48.818;9.526;2023-03-14T18:31:41;7.50;99.90
12039;DHT22;6080;48.818;9.526;2023-03-14T18:34:07;7.40;99.90
12039;DHT22;6080;48.818;9.526;2023-03-14T18:36:33;7.40;99.90
12039;DHT22;6080;48.818;9.526;2023-03-14T18:38:58;7.10;99.90
12039;DHT22;6080;48.818;9.526;2023-03-14T18:41:25;6.90;99.90
12039;DHT22;6080;48.818;9.526;2023-03-14T18:43:52;6.70;99.90
12039;DHT22;6080;48.818;9.526;2023-03-14T18:46:19;6.40;99.90
12039;DHT22;6080;48.818;9.526;2023-03-14T18:48:46;6.20;99.90
12039;DHT22;6080;48.818;9.526;2023-03-14T18:51:14;6.10;99.90
12039;DHT22;6080;48.818;9.526;2023-03-14T18:53:44;6.10;99.90
12039;DHT22;6080;48.818;9.526;2023-03-14T18:56:10;6.10;99.90
12039;DHT22;6080;48.818;9.526;2023-03-14T18:58:38;6.00;99.90
12039;DHT22;6080;48.818;9.526;2023-03-14T19:01:04;6.00;99.90
12039;DHT22;6080;48.818;9.526;2023-03-14T19:03:32;5.90;99.90
12039;DHT22;6080;48.818;9.526;2023-03-14T19:05:58;5.90;99.90
12039;DHT22;6080;48.818;9.526;2023-03-14T19:08:26;5.90;99.90
12039;DHT22;6080;48.818;9.526;2023-03-14T19:10:54;5.90;99.90
12039;DHT22;6080;48.818;9.526;2023-03-14T19:13:21;5.90;99.90
12039;DHT22;6080;48.818;9.526;2023-03-14T19:15:47;5.90;99.90
12039;DHT22;6080;48.818;9.526;2023-03-14T19:18:13;6.00;99.90
12039;DHT22;6080;48.818;9.526;2023-03-14T19:20:40;5.90;99.90
12039;DHT22;6080;48.818;9.526;2023-03-14T19:23:09;6.00;99.90
12039;DHT22;6080;48.818;9.526;2023-03-14T19:25:34;6.00;99.90
12039;DHT22;6080;48.818;9.526;2023-03-14T19:28:00;6.10;99.90
12039;DHT22;6080;48.818;9.526;2023-03-14T19:30:26;6.10;99.90
12039;DHT22;6080;48.818;9.526;2023-03-14T19:32:52;6.20;99.90
12039;DHT22;6080;48.818;9.526;2023-03-14T19:35:18;6.20;99.90
12039;DHT22;6080;48.818;9.526;2023-03-14T19:37:44;6.30;99.90
12039;DHT22;6080;48.818;9.526;2023-03-14T19:40:11;6.30;99.90
12039;DHT22;6080;48.818;9.526;2023-03-14T19:42:37;6.20;99.90
12039;DHT22;6080;48.818;9.526;2023-03-14T19:45:03;6.20;99.90
12039;DHT22;6080;48.818;9.526;2023-03-14T19:47:29;6.20;99.90
12039;DHT22;6080;48.818;9.526;2023-03-14T19:49:55;6.20;99.90
12039;DHT22;6080;48.818;9.526;2023-03-14T19:52:23;6.10;99.90
12039;DHT22;6080;48.818;9.526;2023-03-14T19:54:48;6.10;99.90
12039;DHT22;6080;48.818;9.526;2023-03-14T19:57:16;6.10;99.90
12039;DHT22;6080;48.818;9.526;2023-03-14T19:59:42;6.00;99.90
12039;DHT22;6080;48.818;9.526;2023-03-14T20:02:15;6.00;99.90
12039;DHT22;6080;48.818;9.526;2023-03-14T20:04:41;6.10;99.90
12039;DHT22;6080;48.818;9.526;2023-03-14T20:07:11;6.10;99.90
12039;DHT22;6080;48.818;9.526;2023-03-14T20:09:38;6.10;99.90
12039;DHT22;6080;48.818;9.526;2023-03-14T20:12:04;6.10;99.90
12039;DHT22;6080;48.818;9.526;2023-03-14T20:14:30;6.10;99.90
12039;DHT22;6080;48.818;9.526;2023-03-14T20:16:57;6.10;99.90
12039;DHT22;6080;48.818;9.526;2023-03-14T20:19:25;6.10;99.90
12039;DHT22;6080;48.818;9.526;2023-03-14T20:21:50;6.10;99.90
12039;DHT22;6080;48.818;9.526;2023-03-14T20:24:16;6.10;99.90
12039;DHT22;6080;48.818;9.526;2023-03-14T20:26:42;6.20;99.90
12039;DHT22;6080;48.818;9.526;2023-03-14T20:29:08;6.20;99.90
12039;DHT22;6080;48.818;9.526;2023-03-14T20:31:34;6.10;99.90
12039;DHT22;6080;48.818;9.526;2023-03-14T20:34:04;6.10;99.90
12039;DHT22;6080;48.818;9.526;2023-03-14T20:36:30;6.30;99.90
12039;DHT22;6080;48.818;9.526;2023-03-14T20:39:00;6.30;99.90
12039;DHT22;6080;48.818;9.526;2023-03-14T20:41:26;6.30;99.90
12039;DHT22;6080;48.818;9.526;2023-03-14T20:43:52;6.30;99.90
12039;DHT22;6080;48.818;9.526;2023-03-14T20:46:17;6.40;99.90
12039;DHT22;6080;48.818;9.526;2023-03-14T20:48:43;6.40;99.90
12039;DHT22;6080;48.818;9.526;2023-03-14T20:51:10;6.50;99.90
12039;DHT22;6080;48.818;9.526;2023-03-14T20:53:38;6.40;99.90
12039;DHT22;6080;48.818;9.526;2023-03-14T20:56:03;6.30;99.90
12039;DHT22;6080;48.818;9.526;2023-03-14T20:58:29;6.20;99.90
12039;DHT22;6080;48.818;9.526;2023-03-14T21:00:56;6.10;99.90
12039;DHT22;6080;48.818;9.526;2023-03-14T21:03:23;6.10;99.90